sensor_id;sensor_type;location;lat;lon;timestamp;temperature;humidity
45685;DHT22;46836;48.388;16.210;2023-04-28T00:02:18;9.10;95.70
45685;DHT22;46836;48.388;16.210;2023-04-28T00:04:45;9.10;95.80
45685;DHT22;46836;48.388;16.210;2023-04-28T00:07:13;9.10;95.90
45685;DHT22;46836;48.388;16.210;2023-04-28T00:09:40;9.10;96.00
45685;DHT22;46836;48.388;16.210;2023-04-28T00:12:07;9.00;95.90
45685;DHT22;46836;48.388;16.210;2023-04-28T00:14:34;9.00;95.90
45685;DHT22;46836;48.388;16.210;2023-04-28T00:17:01;9.00;95.90
45685;DHT22;46836;48.388;16.210;2023-04-28T00:19:29;9.00;96.10
45685;DHT22;46836;48.388;16.210;2023-04-28T00:21:56;8.90;96.10
45685;DHT22;46836;48.388;16.210;2023-04-28T00:24:23;8.90;96.30
45685;DHT22;46836;48.388;16.210;2023-04-28T00:26:50;8.90;96.40
45685;DHT22;46836;48.388;16.210;2023-04-28T00:29:18;8.80;96.50
45685;DHT22;46836;48.388;16.210;2023-04-28T00:31:45;8.80;96.50
45685;DHT22;46836;48.388;16.210;2023-04-28T00:34:12;8.80;96.60
45685;DHT22;46836;48.388;16.210;2023-04-28T00:36:41;8.80;96.60
45685;DHT22;46836;48.388;16.210;2023-04-28T00:39:08;8.70;96.90
45685;DHT22;46836;48.388;16.210;2023-04-28T00:41:35;8.70;96.80
45685;DHT22;46836;48.388;16.210;2023-04-28T00:44:03;8.70;96.90
45685;DHT22;46836;48.388;16.210;2023-04-28T00:46:30;8.60;96.90
45685;DHT22;46836;48.388;16.210;2023-04-28T00:49:00;8.60;97.10
45685;DHT22;46836;48.388;16.210;2023-04-28T00:51:27;8.60;97.20
45685;DHT22;46836;48.388;16.210;2023-04-28T00:53:55;8.60;97.40
45685;DHT22;46836;48.388;16.210;2023-04-28T00:56:23;8.60;97.50
45685;DHT22;46836;48.388;16.210;2023-04-28T00:58:50;8.50;97.50
45685;DHT22;46836;48.388;16.210;2023-04-28T01:01:17;8.50;97.60
45685;DHT22;46836;48.388;16.210;2023-04-28T01:03:44;8.40;97.70
45685;DHT22;46836;48.388;16.210;2023-04-28T01:06:13;8.40;97.80
45685;DHT22;46836;48.388;16.210;2023-04-28T01:08:40;8.40;98.00
45685;DHT22;46836;48.388;16.210;2023-04-28T01:11:08;8.30;98.10
45685;DHT22;46836;48.388;16.210;2023-04-28T01:13:40;8.30;98.20
45685;DHT22;46836;48.388;16.210;2023-04-28T01:16:07;8.30;98.30
45685;DHT22;46836;48.388;16.210;2023-04-28T01:18:34;8.30;98.40
45685;DHT22;46836;48.388;16.210;2023-04-28T01:21:01;8.20;98.40
45685;DHT22;46836;48.388;16.210;2023-04-28T01:23:30;8.20;98.50
45685;DHT22;46836;48.388;16.210;2023-04-28T01:25:57;8.10;98.60
45685;DHT22;46836;48.388;16.210;2023-04-28T01:28:24;8.10;98.60
45685;DHT22;46836;48.388;16.210;2023-04-28T01:30:51;8.10;98.70
45685;DHT22;46836;48.388;16.210;2023-04-28T01:33:18;8.10;98.60
45685;DHT22;46836;48.388;16.210;2023-04-28T01:35:45;8.10;98.70
45685;DHT22;46836;48.388;16.210;2023-04-28T01:38:12;8.00;98.90
45685;DHT22;46836;48.388;16.210;2023-04-28T01:40:39;8.00;98.80
45685;DHT22;46836;48.388;16.210;2023-04-28T01:43:06;8.00;98.90
45685;DHT22;46836;48.388;16.210;2023-04-28T01:45:33;8.00;98.90
45685;DHT22;46836;48.388;16.210;2023-04-28T01:48:00;7.90;98.90
45685;DHT22;46836;48.388;16.210;2023-04-28T01:50:27;7.90;99.00
45685;DHT22;46836;48.388;16.210;2023-04-28T01:52:54;7.90;98.90
45685;DHT22;46836;48.388;16.210;2023-04-28T01:55:21;7.80;98.90
45685;DHT22;46836;48.388;16.210;2023-04-28T01:57:48;7.80;98.90
45685;DHT22;46836;48.388;16.210;2023-04-28T02:00:15;7.80;98.90
45685;DHT22;46836;48.388;16.210;2023-04-28T02:02:42;7.80;99.00
45685;DHT22;46836;48.388;16.210;2023-04-28T02:05:10;7.80;98.90
45685;DHT22;46836;48.388;16.210;2023-04-28T02:07:37;7.80;99.00
45685;DHT22;46836;48.388;16.210;2023-04-28T02:10:05;7.80;99.00
45685;DHT22;46836;48.388;16.210;2023-04-28T02:12:32;7.80;99.10
45685;DHT22;46836;48.388;16.210;2023-04-28T02:14:59;7.80;99.10
45685;DHT22;46836;48.388;16.210;2023-04-28T02:17:29;7.80;99.10
45685;DHT22;46836;48.388;16.210;2023-04-28T02:19:56;7.80;99.30
45685;DHT22;46836;48.388;16.210;2023-04-28T02:22:23;7.80;99.30
45685;DHT22;46836;48.388;16.210;2023-04-28T02:24:50;7.80;99.30
45685;DHT22;46836;48.388;16.210;2023-04-28T02:27:17;7.80;99.20
45685;DHT22;46836;48.388;16.210;2023-04-28T02:29:44;7.80;99.30
45685;DHT22;46836;48.388;16.210;2023-04-28T02:32:11;7.80;99.50
45685;DHT22;46836;48.388;16.210;2023-04-28T02:34:38;7.80;99.40
45685;DHT22;46836;48.388;16.210;2023-04-28T02:37:06;7.70;99.60
45685;DHT22;46836;48.388;16.210;2023-04-28T02:39:33;7.70;99.70
45685;DHT22;46836;48.388;16.210;2023-04-28T02:42:00;7.70;99.60
45685;DHT22;46836;48.388;16.210;2023-04-28T02:44:27;7.70;99.70
45685;DHT22;46836;48.388;16.210;2023-04-28T02:46:54;7.70;99.80
45685;DHT22;46836;48.388;16.210;2023-04-28T02:49:21;7.70;99.90
45685;DHT22;46836;48.388;16.210;2023-04-28T02:51:48;7.70;99.90
45685;DHT22;46836;48.388;16.210;2023-04-28T02:54:15;7.70;99.90
45685;DHT22;46836;48.388;16.210;2023-04-28T02:56:42;7.70;99.90
45685;DHT22;46836;48.388;16.210;2023-04-28T02:59:09;7.70;99.90
45685;DHT22;46836;48.388;16.210;2023-04-28T03:01:36;7.70;99.90
45685;DHT22;46836;48.388;16.210;2023-04-28T03:04:03;7.70;99.90
45685;DHT22;46836;48.388;16.210;2023-04-28T03:06:30;7.70;99.90
45685;DHT22;46836;48.388;16.210;2023-04-28T03:08:57;7.70;99.90
45685;DHT22;46836;48.388;16.210;2023-04-28T03:11:24;7.60;99.90
45685;DHT22;46836;48.388;16.210;2023-04-28T03:13:51;7.60;99.90
45685;DHT22;46836;48.388;16.210;2023-04-28T03:16:18;7.60;99.90
45685;DHT22;46836;48.388;16.210;2023-04-28T03:18:45;7.60;99.90
45685;DHT22;46836;48.388;16.210;2023-04-28T03:21:13;7.60;99.90
45685;DHT22;46836;48.388;16.210;2023-04-28T03:23:39;7.60;99.90
45685;DHT22;46836;48.388;16.210;2023-04-28T03:26:07;7.60;99.90
45685;DHT22;46836;48.388;16.210;2023-04-28T03:28:33;7.50;99.90
45685;DHT22;46836;48.388;16.210;2023-04-28T03:31:00;7.50;99.90
45685;DHT22;46836;48.388;16.210;2023-04-28T03:33:28;7.50;99.90
45685;DHT22;46836;48.388;16.210;2023-04-28T03:35:55;7.50;99.90
45685;DHT22;46836;48.388;16.210;2023-04-28T03:38:22;7.50;99.90
45685;DHT22;46836;48.388;16.210;2023-04-28T03:40:49;7.40;99.90
45685;DHT22;46836;48.388;16.210;2023-04-28T03:43:16;7.40;99.90
45685;DHT22;46836;48.388;16.210;2023-04-28T03:45:43;7.30;99.90
45685;DHT22;46836;48.388;16.210;2023-04-28T03:48:10;7.30;99.90
45685;DHT22;46836;48.388;16.210;2023-04-28T03:50:37;7.30;99.90
45685;DHT22;46836;48.388;16.210;2023-04-28T03:53:06;7.30;99.90
45685;DHT22;46836;48.388;16.210;2023-04-28T03:55:34;7.30;99.90
45685;DHT22;46836;48.388;16.210;2023-04-28T03:58:01;7.30;99.90
45685;DHT22;46836;48.388;16.210;2023-04-28T04:00:28;7.40;99.90
45685;DHT22;46836;48.388;16.210;2023-04-28T04:02:55;7.40;99.90
45685;DHT22;46836;48.388;16.210;2023-04-28T04:05:23;7.40;99.90
45685;DHT22;46836;48.388;16.210;2023-04-28T04:07:50;7.40;99.90
45685;DHT22;46836;48.388;16.210;2023-04-28T04:10:17;7.50;99.90
45685;DHT22;46836;48.388;16.210;2023-04-28T04:12:44;7.50;99.90
45685;DHT22;46836;48.388;16.210;2023-04-28T04:15:11;7.50;99.90
45685;DHT22;46836;48.388;16.210;2023-04-28T04:17:38;7.60;99.90
45685;DHT22;46836;48.388;16.210;2023-04-28T04:20:06;7.60;99.90
45685;DHT22;46836;48.388;16.210;2023-04-28T04:22:33;7.60;99.90
45685;DHT22;46836;48.388;16.210;2023-04-28T04:25:00;7.60;99.90
45685;DHT22;46836;48.388;16.210;2023-04-28T04:27:27;7.70;99.90
45685;DHT22;46836;48.388;16.210;2023-04-28T04:29:54;7.70;99.90
45685;DHT22;46836;48.388;16.210;2023-04-28T04:32:21;7.80;99.90
45685;DHT22;46836;48.388;16.210;2023-04-28T04:34:48;7.80;99.90
45685;DHT22;46836;48.388;16.210;2023-04-28T04:37:15;7.90;99.90
45685;DHT22;46836;48.388;16.210;2023-04-28T04:39:43;7.90;99.90
45685;DHT22;46836;48.388;16.210;2023-04-28T04:42:10;7.90;99.90
45685;DHT22;46836;48.388;16.210;2023-04-28T04:44:51;8.00;99.90
45685;DHT22;46836;48.388;16.210;2023-04-28T04:47:18;8.00;99.90
45685;DHT22;46836;48.388;16.210;2023-04-28T04:49:45;8.10;99.90
45685;DHT22;46836;48.388;16.210;2023-04-28T04:52:12;8.20;99.90
45685;DHT22;46836;48.388;16.210;2023-04-28T04:54:39;8.20;99.90
45685;DHT22;46836;48.388;16.210;2023-04-28T04:57:06;8.30;99.90
45685;DHT22;46836;48.388;16.210;2023-04-28T04:59:33;8.30;99.90
45685;DHT22;46836;48.388;16.210;2023-04-28T05:02:00;8.30;99.90
45685;DHT22;46836;48.388;16.210;2023-04-28T05:04:27;8.40;99.90
45685;DHT22;46836;48.388;16.210;2023-04-28T05:06:55;8.50;99.90
45685;DHT22;46836;48.388;16.210;2023-04-28T05:09:22;8.60;99.90
45685;DHT22;46836;48.388;16.210;2023-04-28T05:11:49;8.70;99.90
45685;DHT22;46836;48.388;16.210;2023-04-28T05:14:16;8.80;99.90
45685;DHT22;46836;48.388;16.210;2023-04-28T05:16:44;8.80;99.90
45685;DHT22;46836;48.388;16.210;2023-04-28T05:19:11;9.00;99.90
45685;DHT22;46836;48.388;16.210;2023-04-28T05:21:38;9.10;99.90
45685;DHT22;46836;48.388;16.210;2023-04-28T05:24:05;9.20;99.90
45685;DHT22;46836;48.388;16.210;2023-04-28T05:26:32;9.30;99.90
45685;DHT22;46836;48.388;16.210;2023-04-28T05:28:59;9.30;99.90
45685;DHT22;46836;48.388;16.210;2023-04-28T05:31:26;9.30;99.90
45685;DHT22;46836;48.388;16.210;2023-04-28T05:33:53;9.30;99.90
45685;DHT22;46836;48.388;16.210;2023-04-28T05:36:20;9.40;99.90
45685;DHT22;46836;48.388;16.210;2023-04-28T05:38:48;9.40;99.90
45685;DHT22;46836;48.388;16.210;2023-04-28T05:41:15;9.50;99.90
45685;DHT22;46836;48.388;16.210;2023-04-28T05:43:42;9.50;99.90
45685;DHT22;46836;48.388;16.210;2023-04-28T05:46:09;9.50;99.90
45685;DHT22;46836;48.388;16.210;2023-04-28T05:48:55;9.60;99.90
45685;DHT22;46836;48.388;16.210;2023-04-28T05:51:22;9.60;99.90
45685;DHT22;46836;48.388;16.210;2023-04-28T05:53:49;9.60;99.90
45685;DHT22;46836;48.388;16.210;2023-04-28T05:56:16;9.70;99.90
45685;DHT22;46836;48.388;16.210;2023-04-28T05:58:43;9.70;99.90
45685;DHT22;46836;48.388;16.210;2023-04-28T06:01:11;9.80;99.90
45685;DHT22;46836;48.388;16.210;2023-04-28T06:03:38;9.90;99.90
45685;DHT22;46836;48.388;16.210;2023-04-28T06:06:08;10.00;99.90
45685;DHT22;46836;48.388;16.210;2023-04-28T06:08:37;10.10;99.90
45685;DHT22;46836;48.388;16.210;2023-04-28T06:11:05;10.30;99.90
45685;DHT22;46836;48.388;16.210;2023-04-28T06:13:32;10.40;99.90
45685;DHT22;46836;48.388;16.210;2023-04-28T06:15:59;10.60;99.90
45685;DHT22;46836;48.388;16.210;2023-04-28T06:18:28;10.70;99.90
45685;DHT22;46836;48.388;16.210;2023-04-28T06:20:57;10.80;99.90
45685;DHT22;46836;48.388;16.210;2023-04-28T06:23:24;11.00;99.90
45685;DHT22;46836;48.388;16.210;2023-04-28T06:25:52;11.00;99.90
45685;DHT22;46836;48.388;16.210;2023-04-28T06:28:19;11.10;99.90
45685;DHT22;46836;48.388;16.210;2023-04-28T06:30:46;11.20;99.90
45685;DHT22;46836;48.388;16.210;2023-04-28T06:33:13;11.30;99.90
45685;DHT22;46836;48.388;16.210;2023-04-28T06:35:40;11.40;99.90
45685;DHT22;46836;48.388;16.210;2023-04-28T06:38:07;11.60;99.90
45685;DHT22;46836;48.388;16.210;2023-04-28T06:40:34;11.70;99.90
45685;DHT22;46836;48.388;16.210;2023-04-28T06:43:01;11.80;99.90
45685;DHT22;46836;48.388;16.210;2023-04-28T06:45:28;11.90;99.90
45685;DHT22;46836;48.388;16.210;2023-04-28T06:47:55;11.90;99.90
45685;DHT22;46836;48.388;16.210;2023-04-28T06:50:23;11.90;99.90
45685;DHT22;46836;48.388;16.210;2023-04-28T06:52:50;11.90;99.90
45685;DHT22;46836;48.388;16.210;2023-04-28T06:55:17;12.00;99.90
45685;DHT22;46836;48.388;16.210;2023-04-28T06:57:44;12.10;99.90
45685;DHT22;46836;48.388;16.210;2023-04-28T07:00:12;12.10;99.90
45685;DHT22;46836;48.388;16.210;2023-04-28T07:02:40;12.10;99.90
45685;DHT22;46836;48.388;16.210;2023-04-28T07:05:07;12.10;99.90
45685;DHT22;46836;48.388;16.210;2023-04-28T07:07:35;12.10;99.90
45685;DHT22;46836;48.388;16.210;2023-04-28T07:10:05;12.10;99.90
45685;DHT22;46836;48.388;16.210;2023-04-28T07:12:32;12.20;99.90
45685;DHT22;46836;48.388;16.210;2023-04-28T07:14:59;12.20;99.90
45685;DHT22;46836;48.388;16.210;2023-04-28T07:17:26;12.30;99.90
45685;DHT22;46836;48.388;16.210;2023-04-28T07:19:53;12.40;99.90
45685;DHT22;46836;48.388;16.210;2023-04-28T07:22:20;12.40;99.90
45685;DHT22;46836;48.388;16.210;2023-04-28T07:24:47;12.50;99.90
45685;DHT22;46836;48.388;16.210;2023-04-28T07:27:14;12.60;99.90
45685;DHT22;46836;48.388;16.210;2023-04-28T07:29:41;12.70;99.90
45685;DHT22;46836;48.388;16.210;2023-04-28T07:32:09;12.70;99.90
45685;DHT22;46836;48.388;16.210;2023-04-28T07:34:36;12.90;99.90
45685;DHT22;46836;48.388;16.210;2023-04-28T07:37:04;12.90;99.90
45685;DHT22;46836;48.388;16.210;2023-04-28T07:39:32;13.00;99.90
45685;DHT22;46836;48.388;16.210;2023-04-28T07:42:01;13.10;99.90
45685;DHT22;46836;48.388;16.210;2023-04-28T07:44:29;13.20;99.90
45685;DHT22;46836;48.388;16.210;2023-04-28T07:46:59;13.30;99.80
45685;DHT22;46836;48.388;16.210;2023-04-28T07:49:29;13.50;99.70
45685;DHT22;46836;48.388;16.210;2023-04-28T07:51:57;13.60;99.50
45685;DHT22;46836;48.388;16.210;2023-04-28T07:54:24;13.80;99.70
45685;DHT22;46836;48.388;16.210;2023-04-28T07:56:51;13.90;99.60
45685;DHT22;46836;48.388;16.210;2023-04-28T07:59:18;14.00;99.20
45685;DHT22;46836;48.388;16.210;2023-04-28T08:01:45;14.10;99.20
45685;DHT22;46836;48.388;16.210;2023-04-28T08:04:12;14.30;99.30
45685;DHT22;46836;48.388;16.210;2023-04-28T08:06:40;14.50;99.40
45685;DHT22;46836;48.388;16.210;2023-04-28T08:09:07;14.70;99.20
45685;DHT22;46836;48.388;16.210;2023-04-28T08:11:35;14.90;99.00
45685;DHT22;46836;48.388;16.210;2023-04-28T08:14:02;15.00;98.80
45685;DHT22;46836;48.388;16.210;2023-04-28T08:16:30;15.20;98.80
45685;DHT22;46836;48.388;16.210;2023-04-28T08:18:57;15.50;98.60
45685;DHT22;46836;48.388;16.210;2023-04-28T08:21:25;15.60;98.50
45685;DHT22;46836;48.388;16.210;2023-04-28T08:23:53;15.70;98.30
45685;DHT22;46836;48.388;16.210;2023-04-28T08:26:20;15.80;98.10
45685;DHT22;46836;48.388;16.210;2023-04-28T08:28:47;15.80;98.10
45685;DHT22;46836;48.388;16.210;2023-04-28T08:31:14;15.90;98.10
45685;DHT22;46836;48.388;16.210;2023-04-28T08:33:41;15.90;97.30
45685;DHT22;46836;48.388;16.210;2023-04-28T08:36:10;15.90;97.60
45685;DHT22;46836;48.388;16.210;2023-04-28T08:38:41;15.80;97.70
45685;DHT22;46836;48.388;16.210;2023-04-28T08:41:09;15.80;98.00
45685;DHT22;46836;48.388;16.210;2023-04-28T08:43:36;15.90;97.90
45685;DHT22;46836;48.388;16.210;2023-04-28T08:46:06;16.00;98.00
45685;DHT22;46836;48.388;16.210;2023-04-28T08:48:40;16.10;97.20
45685;DHT22;46836;48.388;16.210;2023-04-28T08:51:07;16.20;97.30
45685;DHT22;46836;48.388;16.210;2023-04-28T08:53:38;16.40;97.60
45685;DHT22;46836;48.388;16.210;2023-04-28T08:56:26;16.60;96.90
45685;DHT22;46836;48.388;16.210;2023-04-28T08:59:02;16.80;96.80
45685;DHT22;46836;48.388;16.210;2023-04-28T09:01:31;17.00;97.00
45685;DHT22;46836;48.388;16.210;2023-04-28T09:04:02;17.20;97.20
45685;DHT22;46836;48.388;16.210;2023-04-28T09:06:35;17.30;95.80
45685;DHT22;46836;48.388;16.210;2023-04-28T09:09:24;17.30;96.00
45685;DHT22;46836;48.388;16.210;2023-04-28T09:12:10;17.40;95.50
45685;DHT22;46836;48.388;16.210;2023-04-28T09:14:38;17.50;97.00
45685;DHT22;46836;48.388;16.210;2023-04-28T09:17:12;17.50;96.70
45685;DHT22;46836;48.388;16.210;2023-04-28T09:19:40;17.60;95.20
45685;DHT22;46836;48.388;16.210;2023-04-28T09:22:09;17.70;96.90
45685;DHT22;46836;48.388;16.210;2023-04-28T09:24:52;17.70;96.50
45685;DHT22;46836;48.388;16.210;2023-04-28T09:27:27;17.80;95.90
45685;DHT22;46836;48.388;16.210;2023-04-28T09:29:54;17.90;95.20
45685;DHT22;46836;48.388;16.210;2023-04-28T09:32:22;18.00;96.10
45685;DHT22;46836;48.388;16.210;2023-04-28T09:34:52;18.10;96.30
45685;DHT22;46836;48.388;16.210;2023-04-28T09:37:21;18.30;95.90
45685;DHT22;46836;48.388;16.210;2023-04-28T09:39:50;18.40;95.60
45685;DHT22;46836;48.388;16.210;2023-04-28T09:45:07;18.50;93.00
45685;DHT22;46836;48.388;16.210;2023-04-28T09:47:45;18.50;95.00
45685;DHT22;46836;48.388;16.210;2023-04-28T09:50:15;18.50;94.40
45685;DHT22;46836;48.388;16.210;2023-04-28T09:52:44;18.40;94.40
45685;DHT22;46836;48.388;16.210;2023-04-28T09:55:15;18.40;93.60
45685;DHT22;46836;48.388;16.210;2023-04-28T09:57:43;18.40;94.50
45685;DHT22;46836;48.388;16.210;2023-04-28T10:00:12;18.40;94.10
45685;DHT22;46836;48.388;16.210;2023-04-28T10:02:41;18.40;94.60
45685;DHT22;46836;48.388;16.210;2023-04-28T10:05:10;18.40;93.60
45685;DHT22;46836;48.388;16.210;2023-04-28T10:07:39;18.30;93.10
45685;DHT22;46836;48.388;16.210;2023-04-28T10:10:07;18.30;94.40
45685;DHT22;46836;48.388;16.210;2023-04-28T10:12:34;18.40;94.20
45685;DHT22;46836;48.388;16.210;2023-04-28T10:15:06;18.40;94.20
45685;DHT22;46836;48.388;16.210;2023-04-28T10:17:35;18.40;93.80
45685;DHT22;46836;48.388;16.210;2023-04-28T10:20:03;18.60;94.50
45685;DHT22;46836;48.388;16.210;2023-04-28T10:25:31;19.00;94.60
45685;DHT22;46836;48.388;16.210;2023-04-28T10:28:03;19.30;94.30
45685;DHT22;46836;48.388;16.210;2023-04-28T10:30:30;19.50;94.40
45685;DHT22;46836;48.388;16.210;2023-04-28T10:35:41;19.90;92.60
45685;DHT22;46836;48.388;16.210;2023-04-28T10:38:17;20.00;94.00
45685;DHT22;46836;48.388;16.210;2023-04-28T10:40:53;20.30;94.20
45685;DHT22;46836;48.388;16.210;2023-04-28T10:43:38;20.20;91.60
45685;DHT22;46836;48.388;16.210;2023-04-28T10:46:09;20.30;91.40
45685;DHT22;46836;48.388;16.210;2023-04-28T10:58:49;20.40;92.40
45685;DHT22;46836;48.388;16.210;2023-04-28T11:03:48;20.50;92.00
45685;DHT22;46836;48.388;16.210;2023-04-28T11:06:38;20.50;92.20
45685;DHT22;46836;48.388;16.210;2023-04-28T11:14:31;20.60;90.30
45685;DHT22;46836;48.388;16.210;2023-04-28T11:17:01;20.50;89.40
45685;DHT22;46836;48.388;16.210;2023-04-28T11:19:29;20.50;90.30
45685;DHT22;46836;48.388;16.210;2023-04-28T11:21:59;20.50;91.30
45685;DHT22;46836;48.388;16.210;2023-04-28T11:24:27;20.40;90.70
45685;DHT22;46836;48.388;16.210;2023-04-28T11:26:58;20.50;91.00
45685;DHT22;46836;48.388;16.210;2023-04-28T11:29:36;20.70;91.50
45685;DHT22;46836;48.388;16.210;2023-04-28T11:32:05;20.80;90.70
45685;DHT22;46836;48.388;16.210;2023-04-28T11:34:34;20.80;91.00
45685;DHT22;46836;48.388;16.210;2023-04-28T11:37:02;20.90;90.80
45685;DHT22;46836;48.388;16.210;2023-04-28T11:39:32;20.90;91.30
45685;DHT22;46836;48.388;16.210;2023-04-28T11:42:00;21.10;90.90
45685;DHT22;46836;48.388;16.210;2023-04-28T11:44:29;21.30;90.30
45685;DHT22;46836;48.388;16.210;2023-04-28T11:47:00;21.30;90.50
45685;DHT22;46836;48.388;16.210;2023-04-28T11:49:48;21.30;90.40
45685;DHT22;46836;48.388;16.210;2023-04-28T11:52:15;21.30;87.60
45685;DHT22;46836;48.388;16.210;2023-04-28T11:54:42;21.30;90.80
45685;DHT22;46836;48.388;16.210;2023-04-28T11:57:20;21.20;90.60
45685;DHT22;46836;48.388;16.210;2023-04-28T11:59:49;21.10;86.80
45685;DHT22;46836;48.388;16.210;2023-04-28T12:02:24;21.00;88.90
45685;DHT22;46836;48.388;16.210;2023-04-28T12:04:54;20.90;88.30
45685;DHT22;46836;48.388;16.210;2023-04-28T12:07:21;20.80;89.80
45685;DHT22;46836;48.388;16.210;2023-04-28T12:10:14;20.80;90.20
45685;DHT22;46836;48.388;16.210;2023-04-28T12:12:43;20.80;88.70
45685;DHT22;46836;48.388;16.210;2023-04-28T12:15:18;20.80;90.10
45685;DHT22;46836;48.388;16.210;2023-04-28T12:17:48;20.60;89.90
45685;DHT22;46836;48.388;16.210;2023-04-28T12:20:33;20.40;90.00
45685;DHT22;46836;48.388;16.210;2023-04-28T12:23:01;20.30;87.00
45685;DHT22;46836;48.388;16.210;2023-04-28T12:25:28;20.20;90.30
45685;DHT22;46836;48.388;16.210;2023-04-28T12:30:30;20.10;90.00
45685;DHT22;46836;48.388;16.210;2023-04-28T12:32:58;20.00;90.10
45685;DHT22;46836;48.388;16.210;2023-04-28T12:35:26;20.00;90.50
45685;DHT22;46836;48.388;16.210;2023-04-28T12:37:54;19.90;90.50
45685;DHT22;46836;48.388;16.210;2023-04-28T12:40:21;19.90;90.60
45685;DHT22;46836;48.388;16.210;2023-04-28T12:42:49;19.80;90.30
45685;DHT22;46836;48.388;16.210;2023-04-28T12:45:17;19.80;90.20
45685;DHT22;46836;48.388;16.210;2023-04-28T12:47:44;19.70;90.60
45685;DHT22;46836;48.388;16.210;2023-04-28T12:50:12;19.60;90.60
45685;DHT22;46836;48.388;16.210;2023-04-28T12:52:39;19.60;90.90
45685;DHT22;46836;48.388;16.210;2023-04-28T12:55:06;19.70;91.00
45685;DHT22;46836;48.388;16.210;2023-04-28T12:57:33;19.70;90.80
45685;DHT22;46836;48.388;16.210;2023-04-28T13:00:06;19.70;90.90
45685;DHT22;46836;48.388;16.210;2023-04-28T13:02:34;19.70;91.20
45685;DHT22;46836;48.388;16.210;2023-04-28T13:05:01;19.70;91.00
45685;DHT22;46836;48.388;16.210;2023-04-28T13:07:29;19.60;91.10
45685;DHT22;46836;48.388;16.210;2023-04-28T13:09:56;19.60;91.10
45685;DHT22;46836;48.388;16.210;2023-04-28T13:12:24;19.60;91.30
45685;DHT22;46836;48.388;16.210;2023-04-28T13:14:51;19.60;91.30
45685;DHT22;46836;48.388;16.210;2023-04-28T13:17:18;19.60;91.00
45685;DHT22;46836;48.388;16.210;2023-04-28T13:19:45;19.60;91.10
45685;DHT22;46836;48.388;16.210;2023-04-28T13:22:13;19.50;91.30
45685;DHT22;46836;48.388;16.210;2023-04-28T13:24:41;19.50;91.10
45685;DHT22;46836;48.388;16.210;2023-04-28T13:27:09;19.40;91.10
45685;DHT22;46836;48.388;16.210;2023-04-28T13:29:36;19.40;91.00
45685;DHT22;46836;48.388;16.210;2023-04-28T13:32:04;19.30;91.10
45685;DHT22;46836;48.388;16.210;2023-04-28T13:34:31;19.20;90.30
45685;DHT22;46836;48.388;16.210;2023-04-28T13:36:59;19.10;90.90
45685;DHT22;46836;48.388;16.210;2023-04-28T13:39:25;19.10;90.80
45685;DHT22;46836;48.388;16.210;2023-04-28T13:41:52;19.00;90.90
45685;DHT22;46836;48.388;16.210;2023-04-28T13:44:20;18.90;91.10
45685;DHT22;46836;48.388;16.210;2023-04-28T13:46:47;18.80;91.10
45685;DHT22;46836;48.388;16.210;2023-04-28T13:49:14;18.80;91.30
45685;DHT22;46836;48.388;16.210;2023-04-28T13:51:41;18.80;91.20
45685;DHT22;46836;48.388;16.210;2023-04-28T13:54:08;18.70;90.90
45685;DHT22;46836;48.388;16.210;2023-04-28T13:56:37;18.50;91.00
45685;DHT22;46836;48.388;16.210;2023-04-28T13:59:04;18.50;91.10
45685;DHT22;46836;48.388;16.210;2023-04-28T14:01:32;18.40;91.30
45685;DHT22;46836;48.388;16.210;2023-04-28T14:03:59;18.30;91.30
45685;DHT22;46836;48.388;16.210;2023-04-28T14:06:26;18.30;91.40
45685;DHT22;46836;48.388;16.210;2023-04-28T14:08:54;18.20;91.60
45685;DHT22;46836;48.388;16.210;2023-04-28T14:11:21;18.20;91.70
45685;DHT22;46836;48.388;16.210;2023-04-28T14:13:48;18.20;91.70
45685;DHT22;46836;48.388;16.210;2023-04-28T14:16:15;18.20;91.80
45685;DHT22;46836;48.388;16.210;2023-04-28T14:18:42;18.10;91.80
45685;DHT22;46836;48.388;16.210;2023-04-28T14:21:09;18.10;92.10
45685;DHT22;46836;48.388;16.210;2023-04-28T14:23:37;18.00;92.20
45685;DHT22;46836;48.388;16.210;2023-04-28T14:26:05;18.00;92.50
45685;DHT22;46836;48.388;16.210;2023-04-28T14:28:32;17.90;92.80
45685;DHT22;46836;48.388;16.210;2023-04-28T14:31:02;18.00;93.10
45685;DHT22;46836;48.388;16.210;2023-04-28T14:33:32;17.90;94.10
45685;DHT22;46836;48.388;16.210;2023-04-28T14:35:59;17.90;93.80
45685;DHT22;46836;48.388;16.210;2023-04-28T14:38:28;17.80;94.10
45685;DHT22;46836;48.388;16.210;2023-04-28T14:40:56;17.80;94.90
45685;DHT22;46836;48.388;16.210;2023-04-28T14:43:23;17.70;94.90
45685;DHT22;46836;48.388;16.210;2023-04-28T14:45:51;17.60;94.90
45685;DHT22;46836;48.388;16.210;2023-04-28T14:48:19;17.60;95.40
45685;DHT22;46836;48.388;16.210;2023-04-28T14:50:46;17.50;95.50
45685;DHT22;46836;48.388;16.210;2023-04-28T14:53:13;17.40;96.10
45685;DHT22;46836;48.388;16.210;2023-04-28T14:55:40;17.50;96.00
45685;DHT22;46836;48.388;16.210;2023-04-28T14:58:08;17.40;96.20
45685;DHT22;46836;48.388;16.210;2023-04-28T15:00:35;17.40;96.30
45685;DHT22;46836;48.388;16.210;2023-04-28T15:03:02;17.40;96.40
45685;DHT22;46836;48.388;16.210;2023-04-28T15:05:29;17.30;96.30
45685;DHT22;46836;48.388;16.210;2023-04-28T15:07:56;17.20;96.60
45685;DHT22;46836;48.388;16.210;2023-04-28T15:10:24;17.10;97.40
45685;DHT22;46836;48.388;16.210;2023-04-28T15:12:52;17.10;97.10
45685;DHT22;46836;48.388;16.210;2023-04-28T15:15:18;17.10;97.80
45685;DHT22;46836;48.388;16.210;2023-04-28T15:17:46;17.10;98.60
45685;DHT22;46836;48.388;16.210;2023-04-28T15:20:13;17.10;99.10
45685;DHT22;46836;48.388;16.210;2023-04-28T15:22:40;17.10;99.00
45685;DHT22;46836;48.388;16.210;2023-04-28T15:25:10;17.20;99.80
45685;DHT22;46836;48.388;16.210;2023-04-28T15:27:37;17.20;99.60
45685;DHT22;46836;48.388;16.210;2023-04-28T15:30:04;17.10;99.90
45685;DHT22;46836;48.388;16.210;2023-04-28T15:32:31;17.10;99.90
45685;DHT22;46836;48.388;16.210;2023-04-28T15:34:59;17.10;99.90
45685;DHT22;46836;48.388;16.210;2023-04-28T15:37:58;17.00;99.90
45685;DHT22;46836;48.388;16.210;2023-04-28T15:40:25;16.90;99.90
45685;DHT22;46836;48.388;16.210;2023-04-28T15:42:52;16.80;99.90
45685;DHT22;46836;48.388;16.210;2023-04-28T15:45:20;16.60;99.90
45685;DHT22;46836;48.388;16.210;2023-04-28T15:47:49;16.60;99.90
45685;DHT22;46836;48.388;16.210;2023-04-28T15:50:17;16.50;99.90
45685;DHT22;46836;48.388;16.210;2023-04-28T15:52:47;16.30;99.90
45685;DHT22;46836;48.388;16.210;2023-04-28T15:55:17;16.20;99.90
45685;DHT22;46836;48.388;16.210;2023-04-28T15:57:46;16.10;99.90
45685;DHT22;46836;48.388;16.210;2023-04-28T16:00:14;15.90;99.90